createdAt,value
2022-09-07T00:01:01.053Z,100379.19
2022-09-07T00:03:28.330Z,100421.53
2022-09-07T00:05:55.622Z,100417.41
2022-09-07T00:08:25.559Z,100425.91
2022-09-07T00:11:00.595Z,100430.47
2022-09-07T00:13:31.934Z,100429.97
2022-09-07T00:15:59.310Z,100431.66
2022-09-07T00:18:26.153Z,100431.91
2022-09-07T00:21:04.747Z,100423.50
2022-09-07T00:23:32.271Z,100440.34
2022-09-07T00:26:04.878Z,100441.44
2022-09-07T00:28:32.381Z,100440.88
2022-09-07T00:30:59.152Z,100447.31
2022-09-07T00:33:26.182Z,100453.19
2022-09-07T00:35:53.738Z,100463.00
2022-09-07T00:38:20.590Z,100458.50
2022-09-07T00:40:47.307Z,100439.47
2022-09-07T00:43:28.184Z,100445.59
2022-09-07T00:45:54.846Z,100455.13
2022-09-07T00:48:25.798Z,100462.72
2022-09-07T00:51:02.160Z,100470.28
2022-09-07T00:53:34.559Z,100465.50
2022-09-07T00:56:02.877Z,100460.16
2022-09-07T00:58:30.877Z,100449.44
2022-09-07T01:00:57.672Z,100463.47
2022-09-07T01:03:30.917Z,100460.09
2022-09-07T01:06:05.346Z,100469.16
2022-09-07T01:08:32.861Z,100473.41
2022-09-07T01:11:01.039Z,100461.34
2022-09-07T01:13:29.780Z,100452.25
2022-09-07T01:16:08.521Z,100453.88
2022-09-07T01:18:52.333Z,100472.63
2022-09-07T01:21:21.398Z,100464.22
2022-09-07T01:24:06.561Z,100477.56
2022-09-07T01:26:54.020Z,100472.16
2022-09-07T01:29:33.630Z,100496.75
2022-09-07T01:32:01.363Z,100510.00
2022-09-07T01:34:28.423Z,100523.69
2022-09-07T01:36:55.016Z,100542.25
2022-09-07T01:39:29.070Z,100557.31
2022-09-07T01:42:01.387Z,100593.13
2022-09-07T01:44:39.827Z,100612.50
2022-09-07T01:47:32.608Z,100604.28
2022-09-07T01:50:07.589Z,100597.63
2022-09-07T01:53:02.556Z,100590.25
2022-09-07T01:55:38.766Z,100571.69
2022-09-07T01:58:39.720Z,100563.47
2022-09-07T02:01:25.435Z,100565.50
2022-09-07T02:04:01.062Z,100562.09
2022-09-07T02:06:50.243Z,100578.41
2022-09-07T02:09:28.612Z,100562.97
2022-09-07T02:11:55.694Z,100560.75
2022-09-07T02:14:28.655Z,100574.25
2022-09-07T02:17:10.739Z,100565.28
2022-09-07T02:19:45.137Z,100552.59
2022-09-07T02:22:16.498Z,100555.56
2022-09-07T02:24:48.757Z,100538.72
2022-09-07T02:27:19.299Z,100527.91
2022-09-07T02:29:46.160Z,100526.75
2022-09-07T02:32:12.858Z,100516.53
2022-09-07T02:34:39.670Z,100507.63
2022-09-07T02:37:09.333Z,100500.03
2022-09-07T02:39:36.064Z,100510.91
2022-09-07T02:42:03.079Z,100515.41
2022-09-07T02:44:37.050Z,100517.16
2022-09-07T02:47:09.641Z,100514.59
2022-09-07T02:49:54.186Z,100523.03
2022-09-07T02:52:30.426Z,100518.94
2022-09-07T02:55:18.784Z,100529.00
2022-09-07T02:57:57.178Z,100512.19
2022-09-07T03:00:26.119Z,100512.00
2022-09-07T03:03:23.460Z,100510.63
2022-09-07T03:06:01.627Z,100501.56
2022-09-07T03:08:46.920Z,100502.19
2022-09-07T03:11:14.492Z,100515.09
2022-09-07T03:13:41.287Z,100511.94
2022-09-07T03:16:13.116Z,100504.16
2022-09-07T03:18:40.388Z,100503.31
2022-09-07T03:21:06.980Z,100503.41
2022-09-07T03:23:34.027Z,100495.84
2022-09-07T03:26:00.687Z,100494.09
2022-09-07T03:28:27.451Z,100500.00
2022-09-07T03:30:54.258Z,100501.22
2022-09-07T03:33:20.917Z,100501.81
2022-09-07T03:35:58.429Z,100492.03
2022-09-07T03:38:25.116Z,100491.84
2022-09-07T03:41:00.003Z,100483.97
2022-09-07T03:43:27.708Z,100491.03
2022-09-07T03:46:03.519Z,100488.31
2022-09-07T03:48:31.256Z,100499.41
2022-09-07T03:51:06.940Z,100497.25
2022-09-07T03:53:36.314Z,100496.91
2022-09-07T03:56:09.670Z,100501.13
2022-09-07T03:58:36.651Z,100496.44
2022-09-07T04:01:09.751Z,100505.94
2022-09-07T04:03:37.327Z,100499.78
2022-09-07T04:06:04.567Z,100490.19
2022-09-07T04:08:33.326Z,100501.34
2022-09-07T04:11:01.659Z,100496.06
2022-09-07T04:13:30.169Z,100502.75
2022-09-07T04:15:57.058Z,100506.16
2022-09-07T04:18:24.695Z,100512.31
2022-09-07T04:20:51.460Z,100510.22
2022-09-07T04:23:19.331Z,100517.50
2022-09-07T04:25:50.787Z,100509.88
2022-09-07T04:28:19.552Z,100506.91
2022-09-07T04:30:47.069Z,100507.50
2022-09-07T04:33:14.524Z,100512.00
2022-09-07T04:35:42.644Z,100511.09
2022-09-07T04:38:13.947Z,100502.63
2022-09-07T04:40:40.897Z,100500.47
2022-09-07T04:43:09.443Z,100498.16
2022-09-07T04:45:40.162Z,100508.97
2022-09-07T04:48:07.454Z,100500.97
2022-09-07T04:50:34.153Z,100501.44
2022-09-07T04:53:00.838Z,100507.59
2022-09-07T04:55:27.571Z,100510.16
2022-09-07T04:57:54.271Z,100518.19
2022-09-07T05:00:20.869Z,100519.53
2022-09-07T05:02:47.684Z,100516.13
2022-09-07T05:05:14.680Z,100512.09
2022-09-07T05:07:41.495Z,100510.56
2022-09-07T05:10:08.612Z,100503.25
2022-09-07T05:12:35.344Z,100501.25
2022-09-07T05:15:02.041Z,100487.41
2022-09-07T05:17:30.988Z,100496.81
2022-09-07T05:19:58.029Z,100500.13
2022-09-07T05:22:25.822Z,100504.28
2022-09-07T05:24:52.483Z,100499.22
2022-09-07T05:27:19.087Z,100496.59
2022-09-07T05:30:02.469Z,100505.53
2022-09-07T05:32:30.487Z,100496.81
2022-09-07T05:34:57.092Z,100502.50
2022-09-07T05:37:24.113Z,100499.78
2022-09-07T05:39:55.383Z,100505.44
2022-09-07T05:42:22.740Z,100490.94
2022-09-07T05:44:49.328Z,100500.13
2022-09-07T05:47:16.065Z,100508.22
2022-09-07T05:49:42.687Z,100501.88
2022-09-07T05:52:10.128Z,100491.66
2022-09-07T05:54:36.850Z,100499.03
2022-09-07T05:57:04.049Z,100497.41
2022-09-07T05:59:30.912Z,100498.56
2022-09-07T06:01:57.702Z,100492.81
2022-09-07T06:04:24.412Z,100485.09
2022-09-07T06:07:19.979Z,100502.25
2022-09-07T06:12:25.642Z,100519.72
2022-09-07T06:14:52.228Z,100519.22
2022-09-07T06:17:19.698Z,100515.44
2022-09-07T06:19:46.347Z,100514.81
2022-09-07T06:22:13.264Z,100510.91
2022-09-07T06:24:39.877Z,100505.13
2022-09-07T06:27:06.531Z,100505.31
2022-09-07T06:29:33.168Z,100505.13
2022-09-07T06:34:46.886Z,100498.84
2022-09-07T06:37:13.998Z,100493.50
2022-09-07T06:39:40.679Z,100495.91
2022-09-07T06:42:07.379Z,100499.75
2022-09-07T06:44:41.571Z,100498.00
2022-09-07T06:47:08.139Z,100495.44
2022-09-07T06:49:34.803Z,100503.06
2022-09-07T06:52:02.425Z,100498.34
2022-09-07T06:57:16.036Z,100497.53
2022-09-07T06:59:42.656Z,100508.94
2022-09-07T07:02:11.646Z,100511.59
2022-09-07T07:04:41.204Z,100498.13
2022-09-07T07:07:13.844Z,100512.13
2022-09-07T07:09:41.368Z,100514.19
2022-09-07T07:12:09.467Z,100514.72
2022-09-07T07:14:38.406Z,100511.13
2022-09-07T07:17:06.732Z,100518.06
2022-09-07T07:19:33.348Z,100522.53
2022-09-07T07:24:47.242Z,100535.06
2022-09-07T07:27:14.021Z,100527.63
2022-09-07T07:29:40.807Z,100530.19
2022-09-07T07:32:07.586Z,100524.47
2022-09-07T07:34:35.160Z,100528.75
2022-09-07T07:37:01.978Z,100527.19
2022-09-07T07:42:15.623Z,100535.78
2022-09-07T07:44:42.406Z,100541.41
2022-09-07T07:47:09.982Z,100538.91
2022-09-07T07:49:36.679Z,100536.22
2022-09-07T07:54:50.279Z,100544.50
2022-09-07T07:57:18.868Z,100539.91
2022-09-07T07:59:46.238Z,100543.00
2022-09-07T08:02:16.864Z,100555.34
2022-09-07T08:04:43.827Z,100546.56
2022-09-07T08:07:14.339Z,100547.00
2022-09-07T08:09:43.537Z,100548.81
2022-09-07T08:12:13.200Z,100546.59
2022-09-07T08:14:41.518Z,100554.94
2022-09-07T08:17:11.105Z,100555.28
2022-09-07T08:19:38.291Z,100548.91
2022-09-07T08:22:05.551Z,100542.66
2022-09-07T08:24:32.898Z,100551.03
2022-09-07T08:26:59.656Z,100535.81
2022-09-07T08:29:27.169Z,100541.94
2022-09-07T08:31:54.108Z,100541.41
2022-09-07T08:34:21.809Z,100544.06
2022-09-07T08:36:48.567Z,100540.56
2022-09-07T08:39:15.214Z,100530.75
2022-09-07T08:42:00.616Z,100528.84
2022-09-07T08:44:37.425Z,100518.19
2022-09-07T08:47:35.029Z,100536.69
2022-09-07T08:50:12.386Z,100529.47
2022-09-07T08:52:49.409Z,100536.44
2022-09-07T08:55:27.705Z,100543.31
2022-09-07T08:58:47.782Z,100529.16
2022-09-07T09:01:32.000Z,100524.09
2022-09-07T09:04:16.067Z,100521.22
2022-09-07T09:06:55.921Z,100525.97
2022-09-07T09:09:45.467Z,100521.19
2022-09-07T09:12:24.420Z,100526.63
2022-09-07T09:15:02.949Z,100503.19
2022-09-07T09:17:30.058Z,100487.22
2022-09-07T09:20:14.980Z,100503.19
2022-09-07T09:22:43.079Z,100501.19
2022-09-07T09:25:30.155Z,100504.94
2022-09-07T09:27:56.829Z,100525.59
2022-09-07T09:30:24.567Z,100547.06
2022-09-07T09:33:14.887Z,100543.56
2022-09-07T09:35:43.456Z,100548.34
2022-09-07T09:38:33.744Z,100550.41
2022-09-07T09:41:06.199Z,100556.63
2022-09-07T09:43:41.918Z,100553.47
2022-09-07T09:46:27.282Z,100539.09
2022-09-07T09:48:57.896Z,100530.78
2022-09-07T09:54:44.582Z,100541.13
2022-09-07T09:57:38.121Z,100551.84
2022-09-07T10:00:10.976Z,100546.59
2022-09-07T10:05:35.102Z,100554.81
2022-09-07T10:08:02.647Z,100547.38
2022-09-07T10:10:31.311Z,100551.22
2022-09-07T10:12:58.269Z,100552.94
2022-09-07T10:15:33.644Z,100560.84
2022-09-07T10:18:06.143Z,100563.00
2022-09-07T10:20:37.834Z,100563.16
2022-09-07T10:23:06.607Z,100559.94
2022-09-07T10:25:34.790Z,100562.13
2022-09-07T10:28:03.892Z,100553.41
2022-09-07T10:30:55.691Z,100554.31
2022-09-07T10:33:34.613Z,100562.34
2022-09-07T10:36:16.343Z,100547.38
2022-09-07T10:38:56.059Z,100544.13
2022-09-07T10:41:33.329Z,100555.09
2022-09-07T10:44:02.819Z,100553.31
2022-09-07T10:46:59.664Z,100553.41
2022-09-07T10:50:22.042Z,100541.78
2022-09-07T10:52:40.797Z,100544.00
2022-09-07T10:55:15.282Z,100541.59
2022-09-07T10:58:03.453Z,100546.91
2022-09-07T11:01:03.291Z,100541.19
2022-09-07T11:03:42.670Z,100545.88
2022-09-07T11:06:16.822Z,100551.00
2022-09-07T11:12:05.852Z,100548.28
2022-09-07T11:14:45.710Z,100543.25
2022-09-07T11:17:20.532Z,100538.22
2022-09-07T11:19:53.566Z,100547.03
2022-09-07T11:22:33.453Z,100540.28
2022-09-07T11:25:29.434Z,100539.53
2022-09-07T11:27:59.365Z,100531.72
2022-09-07T11:30:40.701Z,100524.50
2022-09-07T11:33:07.362Z,100527.00
2022-09-07T11:35:45.909Z,100514.66
2022-09-07T11:38:33.904Z,100533.97
2022-09-07T11:41:18.783Z,100532.59
2022-09-07T11:43:50.606Z,100531.19
2022-09-07T11:46:45.493Z,100531.25
2022-09-07T11:49:24.646Z,100528.22
2022-09-07T11:52:15.843Z,100520.38
2022-09-07T11:54:55.817Z,100517.84
2022-09-07T11:57:41.335Z,100516.09
2022-09-07T12:00:12.994Z,100515.59
2022-09-07T12:02:59.943Z,100520.13
2022-09-07T12:05:36.372Z,100512.25
2022-09-07T12:08:40.662Z,100519.22
2022-09-07T12:11:24.895Z,100503.00
2022-09-07T12:14:18.680Z,100512.59
2022-09-07T12:17:23.566Z,100496.66
2022-09-07T12:20:11.003Z,100492.44
2022-09-07T12:22:38.021Z,100496.09
2022-09-07T12:25:09.474Z,100506.19
2022-09-07T12:27:38.132Z,100496.69
2022-09-07T12:30:04.856Z,100481.56
2022-09-07T12:32:55.331Z,100481.00
2022-09-07T12:35:29.874Z,100476.50
2022-09-07T12:38:17.904Z,100470.34
2022-09-07T12:40:49.285Z,100469.22
2022-09-07T12:43:15.798Z,100475.94
2022-09-07T12:45:42.331Z,100469.22
2022-09-07T12:48:15.505Z,100459.69
2022-09-07T12:51:07.323Z,100459.13
2022-09-07T12:54:04.153Z,100457.16
2022-09-07T12:56:45.191Z,100455.19
2022-09-07T12:59:30.656Z,100464.19
2022-09-07T13:02:20.834Z,100464.75
2022-09-07T13:05:14.425Z,100460.50
2022-09-07T13:08:08.218Z,100446.75
2022-09-07T13:10:42.589Z,100447.31
2022-09-07T13:13:15.330Z,100437.22
2022-09-07T13:16:12.098Z,100439.72
2022-09-07T13:18:41.588Z,100443.13
2022-09-07T13:21:08.111Z,100441.97
2022-09-07T13:23:35.719Z,100434.94
2022-09-07T13:26:04.957Z,100428.78
2022-09-07T13:28:36.770Z,100416.94
2022-09-07T13:31:45.499Z,100425.91
2022-09-07T13:34:45.578Z,100420.31
2022-09-07T13:37:22.450Z,100421.94
2022-09-07T13:39:52.585Z,100417.97
2022-09-07T13:42:25.557Z,100411.19
2022-09-07T13:44:56.193Z,100404.97
2022-09-07T13:47:33.417Z,100392.03
2022-09-07T13:50:24.101Z,100395.16
2022-09-07T13:53:12.300Z,100397.38
2022-09-07T13:55:45.317Z,100402.75
2022-09-07T13:58:35.449Z,100400.28
2022-09-07T14:01:06.111Z,100401.13
2022-09-07T14:03:51.290Z,100401.13
2022-09-07T14:06:20.925Z,100403.94
2022-09-07T14:08:50.078Z,100406.75
2022-09-07T14:11:21.339Z,100402.81
2022-09-07T14:14:09.757Z,100405.91
2022-09-07T14:16:37.063Z,100404.50
2022-09-07T14:19:11.364Z,100410.13
2022-09-07T14:21:38.861Z,100394.06
2022-09-07T14:24:20.392Z,100390.34
2022-09-07T14:26:48.713Z,100393.63
2022-09-07T14:29:24.400Z,100391.38
2022-09-07T14:31:51.288Z,100396.16
2022-09-07T14:34:22.910Z,100382.13
2022-09-07T14:36:51.246Z,100393.28
2022-09-07T14:39:22.118Z,100387.59
2022-09-07T14:41:49.874Z,100389.16
2022-09-07T14:44:31.877Z,100390.44
2022-09-07T14:47:19.777Z,100382.84
2022-09-07T14:49:53.467Z,100383.38
2022-09-07T14:52:27.213Z,100373.22
2022-09-07T14:54:53.825Z,100372.66
2022-09-07T14:57:30.356Z,100376.25
2022-09-07T14:59:58.815Z,100363.13
2022-09-07T15:02:33.247Z,100361.47
2022-09-07T15:05:15.134Z,100372.94
2022-09-07T15:07:56.498Z,100369.75
2022-09-07T15:10:23.562Z,100373.16
2022-09-07T15:13:01.432Z,100365.75
2022-09-07T15:15:34.440Z,100369.34
2022-09-07T15:18:08.751Z,100364.88
2022-09-07T15:20:42.917Z,100363.97
2022-09-07T15:23:12.146Z,100362.44
2022-09-07T15:25:40.635Z,100369.03
2022-09-07T15:28:14.047Z,100354.66
2022-09-07T15:30:41.984Z,100354.31
2022-09-07T15:33:08.915Z,100351.22
2022-09-07T15:35:35.490Z,100360.03
2022-09-07T15:38:04.377Z,100354.41
2022-09-07T15:41:03.872Z,100349.94
2022-09-07T15:43:29.162Z,100354.75
2022-09-07T15:45:55.815Z,100360.03
2022-09-07T15:48:25.334Z,100358.09
2022-09-07T15:51:00.977Z,100358.94
2022-09-07T15:56:16.073Z,100342.75
2022-09-07T15:58:45.565Z,100343.00
2022-09-07T16:03:59.392Z,100346.69
2022-09-07T16:06:26.393Z,100348.19
2022-09-07T16:08:53.747Z,100340.22
2022-09-07T16:11:25.749Z,100335.91
2022-09-07T16:14:02.011Z,100340.84
2022-09-07T16:19:20.491Z,100328.19
2022-09-07T16:21:47.708Z,100312.16
2022-09-07T16:24:14.524Z,100317.16
2022-09-07T16:26:41.131Z,100310.63
2022-09-07T16:29:07.989Z,100309.94
2022-09-07T16:31:35.382Z,100304.75
2022-09-07T16:34:03.350Z,100308.19
2022-09-07T16:36:30.630Z,100309.72
2022-09-07T16:38:59.651Z,100298.69
2022-09-07T16:41:30.909Z,100295.94
2022-09-07T16:43:58.676Z,100292.63
2022-09-07T16:46:27.680Z,100292.03
2022-09-07T16:48:55.133Z,100301.22
2022-09-07T16:51:22.911Z,100302.44
2022-09-07T16:53:51.280Z,100302.09
2022-09-07T16:56:20.293Z,100292.50
2022-09-07T16:58:56.720Z,100291.75
2022-09-07T17:01:28.663Z,100301.31
2022-09-07T17:03:55.737Z,100294.38
2022-09-07T17:06:24.852Z,100288.50
2022-09-07T17:08:52.764Z,100295.53
2022-09-07T17:11:22.968Z,100286.81
2022-09-07T17:13:51.518Z,100294.00
2022-09-07T17:16:21.830Z,100288.19
2022-09-07T17:21:38.258Z,100277.41
2022-09-07T17:24:06.777Z,100293.03
2022-09-07T17:26:33.802Z,100283.22
2022-09-07T17:29:01.215Z,100291.44
2022-09-07T17:34:17.416Z,100282.81
2022-09-07T17:36:43.971Z,100286.69
2022-09-07T17:39:14.950Z,100291.03
2022-09-07T17:41:43.610Z,100299.69
2022-09-07T17:44:10.276Z,100295.34
2022-09-07T17:46:36.864Z,100297.78
2022-09-07T17:49:04.098Z,100297.94
2022-09-07T17:51:32.225Z,100297.19
2022-09-07T17:54:03.791Z,100299.16
2022-09-07T17:56:31.817Z,100298.16
2022-09-07T18:01:45.856Z,100294.97
2022-09-07T18:04:13.071Z,100296.66
2022-09-07T18:06:40.969Z,100289.81
2022-09-07T18:09:07.528Z,100293.44
2022-09-07T18:11:50.545Z,100295.94
2022-09-07T18:14:18.897Z,100301.31
2022-09-07T18:16:48.823Z,100305.63
2022-09-07T18:19:15.746Z,100301.47
2022-09-07T18:21:43.517Z,100296.72
2022-09-07T18:24:22.784Z,100296.16
2022-09-07T18:26:52.582Z,100296.50
2022-09-07T18:29:32.831Z,100292.84
2022-09-07T18:32:08.285Z,100291.22
2022-09-07T18:34:36.321Z,100291.22
2022-09-07T18:37:03.004Z,100296.28
2022-09-07T18:39:29.697Z,100288.47
2022-09-07T18:41:56.748Z,100285.50
2022-09-07T18:47:21.467Z,100277.66
2022-09-07T18:49:50.157Z,100286.06
2022-09-07T18:55:06.988Z,100282.44
2022-09-07T18:57:34.128Z,100277.38
2022-09-07T19:00:00.930Z,100265.66
2022-09-07T19:02:27.529Z,100276.88
2022-09-07T19:07:41.219Z,100279.13
2022-09-07T19:10:08.051Z,100276.91
2022-09-07T19:12:34.874Z,100271.03
2022-09-07T19:15:01.382Z,100279.13
2022-09-07T19:17:28.158Z,100274.13
2022-09-07T19:19:54.695Z,100279.72
2022-09-07T19:22:21.350Z,100269.63
2022-09-07T19:24:48.179Z,100279.47
2022-09-07T19:27:14.864Z,100274.41
2022-09-07T19:29:41.402Z,100273.59
2022-09-07T19:32:08.038Z,100271.88
2022-09-07T19:34:43.277Z,100268.25
2022-09-07T19:37:11.850Z,100265.75
2022-09-07T19:39:38.500Z,100269.34
2022-09-07T19:42:06.099Z,100257.31
2022-09-07T19:44:32.740Z,100255.63
2022-09-07T19:47:00.420Z,100261.25
2022-09-07T19:49:27.852Z,100254.25
2022-09-07T19:51:54.694Z,100260.09
2022-09-07T19:54:21.432Z,100265.16
2022-09-07T19:56:48.081Z,100265.44
2022-09-07T19:59:14.650Z,100271.84
2022-09-07T20:01:46.043Z,100261.78
2022-09-07T20:04:19.706Z,100268.50
2022-09-07T20:06:48.020Z,100264.00
2022-09-07T20:09:14.589Z,100263.16
2022-09-07T20:11:46.116Z,100263.44
2022-09-07T20:14:14.033Z,100269.03
2022-09-07T20:16:41.513Z,100267.41
2022-09-07T20:19:10.647Z,100262.63
2022-09-07T20:21:37.150Z,100253.38
2022-09-07T20:24:04.442Z,100257.84
2022-09-07T20:26:32.215Z,100248.03
2022-09-07T20:29:16.839Z,100248.31
2022-09-07T20:31:47.224Z,100241.50
2022-09-07T20:34:14.252Z,100251.94
2022-09-07T20:36:40.889Z,100238.50
2022-09-07T20:39:07.847Z,100239.22
2022-09-07T20:41:34.858Z,100232.22
2022-09-07T20:44:03.392Z,100235.56
2022-09-07T20:46:30.972Z,100240.09
2022-09-07T20:48:58.404Z,100236.44
2022-09-07T20:51:25.916Z,100225.56
2022-09-07T20:53:52.599Z,100229.78
2022-09-07T20:56:22.322Z,100228.72
2022-09-07T20:58:54.752Z,100225.31
2022-09-07T21:01:22.045Z,100226.44
2022-09-07T21:03:52.028Z,100224.19
2022-09-07T21:06:20.612Z,100219.69
2022-09-07T21:08:48.163Z,100225.56
2022-09-07T21:11:27.082Z,100227.81
2022-09-07T21:13:59.276Z,100212.72
2022-09-07T21:16:26.819Z,100224.72
2022-09-07T21:18:58.812Z,100230.91
2022-09-07T21:21:27.095Z,100222.34
2022-09-07T21:23:59.287Z,100222.06
2022-09-07T21:26:28.141Z,100226.59
2022-09-07T21:28:59.213Z,100224.66
2022-09-07T21:31:26.733Z,100218.44
2022-09-07T21:33:55.830Z,100217.84
2022-09-07T21:36:23.168Z,100207.53
2022-09-07T21:38:50.385Z,100214.53
2022-09-07T21:41:19.277Z,100210.25
2022-09-07T21:43:46.344Z,100209.03
2022-09-07T21:46:19.142Z,100204.94
2022-09-07T21:48:45.950Z,100192.81
2022-09-07T21:51:14.090Z,100199.50
2022-09-07T21:53:41.454Z,100194.34
2022-09-07T21:56:13.163Z,100189.06
2022-09-07T21:58:40.204Z,100187.13
2022-09-07T22:01:10.912Z,100186.03
2022-09-07T22:03:39.201Z,100193.88
2022-09-07T22:06:06.496Z,100191.97
2022-09-07T22:08:35.759Z,100195.25
2022-09-07T22:11:11.406Z,100201.03
2022-09-07T22:13:38.081Z,100201.31
2022-09-07T22:16:06.128Z,100205.88
2022-09-07T22:18:32.921Z,100192.09
2022-09-07T22:21:10.170Z,100197.69
2022-09-07T22:23:46.110Z,100188.53
2022-09-07T22:26:14.055Z,100189.38
2022-09-07T22:28:41.067Z,100190.47
2022-09-07T22:31:18.789Z,100184.34
2022-09-07T22:33:47.330Z,100179.78
2022-09-07T22:36:26.108Z,100186.50
2022-09-07T22:38:54.973Z,100181.22
2022-09-07T22:41:26.975Z,100177.38
2022-09-07T22:43:53.768Z,100170.63
2022-09-07T22:46:23.033Z,100177.06
2022-09-07T22:48:50.167Z,100172.56
2022-09-07T22:51:17.304Z,100151.59
2022-09-07T22:53:44.179Z,100154.09
2022-09-07T22:56:18.526Z,100170.28
2022-09-07T22:58:50.485Z,100168.66
2022-09-07T23:01:17.785Z,100165.88
2022-09-07T23:03:45.173Z,100158.63
2022-09-07T23:06:23.849Z,100159.19
2022-09-07T23:08:51.908Z,100150.47
2022-09-07T23:11:18.801Z,100162.50
2022-09-07T23:13:45.660Z,100160.31
2022-09-07T23:16:13.107Z,100161.44
2022-09-07T23:18:42.808Z,100163.34
2022-09-07T23:21:10.604Z,100161.59
2022-09-07T23:23:38.040Z,100154.63
2022-09-07T23:26:05.337Z,100148.94
2022-09-07T23:28:32.801Z,100139.34
2022-09-07T23:30:59.478Z,100146.13
2022-09-07T23:33:27.027Z,100140.53
2022-09-07T23:36:03.768Z,100123.25
2022-09-07T23:38:30.969Z,100135.66
2022-09-07T23:40:59.130Z,100124.53
2022-09-07T23:43:27.256Z,100118.97
2022-09-07T23:45:54.803Z,100129.31
2022-09-07T23:48:22.455Z,100115.94
2022-09-07T23:50:49.796Z,100121.53
2022-09-07T23:53:17.872Z,100109.50
2022-09-07T23:55:45.205Z,100112.00
2022-09-07T23:58:11.967Z,100109.75
